Time;durP1;ratioP1;P1;durP2;ratioP2;P2;SDS_P1;SDS_P2;PMS_P1;PMS_P2;Temp;Humidity;BMP_temperature;BMP_pressure;BME280_temperature;BME280_humidity;BME280_pressure;Samples;Min_cycle;Max_cycle;Signal;HPM_P1;HPM_P2
2023/04/19 00:01:45;;;;;;;;;;;;;;;15.47;45.15;101560.84;4924285;28;98751;-66
2023/04/19 00:04:13;;;;;;;;;;;;;;;15.45;45.06;101557.59;4907730;28;98427;-65
2023/04/19 00:06:41;;;;;;;;;;;;;;;15.44;45.11;101559.50;4924655;28;98235;-65
2023/04/19 00:09:08;;;;;;;;;;;;;;;15.44;44.96;101561.41;4923110;28;99839;-66
2023/04/19 00:11:34;;;;;;;;;;;;;;;15.43;45.15;101557.06;4923446;28;97994;-65
2023/04/19 00:14:01;;;;;;;;;;;;;;;15.42;45.23;101553.53;4925109;28;99698;-66
2023/04/19 00:16:28;;;;;;;;;;;;;;;15.41;45.27;101551.91;4922046;28;98788;-66
2023/04/19 00:18:54;;;;;;;;;;;;;;;15.39;45.08;101551.34;4926107;28;98244;-65
2023/04/19 00:21:21;;;;;;;;;;;;;;;15.39;45.19;101551.34;4924660;28;97995;-66
2023/04/19 00:23:48;;;;;;;;;;;;;;;15.38;45.30;101554.34;4933492;28;98173;-65
2023/04/19 00:26:15;;;;;;;;;;;;;;;15.37;45.26;101547.31;4924154;28;99352;-66
2023/04/19 00:28:42;;;;;;;;;;;;;;;15.36;44.98;101543.75;4921697;28;99305;-65
2023/04/19 00:31:09;;;;;;;;;;;;;;;15.36;45.08;101545.66;4903679;28;98176;-65
2023/04/19 00:33:36;;;;;;;;;;;;;;;15.34;45.14;101540.50;4924640;28;98749;-66
2023/04/19 00:36:02;;;;;;;;;;;;;;;15.35;44.92;101542.13;4928059;28;98451;-65
2023/04/19 00:38:29;;;;;;;;;;;;;;;15.34;45.24;101537.78;4923110;28;98387;-65
2023/04/19 00:40:55;;;;;;;;;;;;;;;15.34;45.28;101534.25;4921710;28;98044;-66
2023/04/19 00:43:21;;;;;;;;;;;;;;;15.33;44.89;101529.91;4923881;28;98320;-66
2023/04/19 00:45:48;;;;;;;;;;;;;;;15.33;45.18;101524.47;4933366;28;98035;-65
2023/04/19 00:48:14;;;;;;;;;;;;;;;15.32;45.04;101526.34;4899954;28;98203;-65
2023/04/19 00:50:42;;;;;;;;;;;;;;;15.33;44.93;101529.91;4923181;28;97977;-65
2023/04/19 00:53:09;;;;;;;;;;;;;;;15.32;44.89;101522.84;4920039;28;97944;-66
2023/04/19 00:55:37;;;;;;;;;;;;;;;15.32;45.16;101520.94;4923978;28;98245;-65
2023/04/19 00:58:04;;;;;;;;;;;;;;;15.31;44.92;101522.03;4924800;28;98178;-65
2023/04/19 01:00:31;;;;;;;;;;;;;;;15.31;44.95;101519.31;4920347;28;99293;-65
2023/04/19 01:02:58;;;;;;;;;;;;;;;15.30;45.06;101514.97;4926223;28;98152;-65
2023/04/19 01:05:25;;;;;;;;;;;;;;;15.30;45.01;101512.25;4919998;28;98442;-66
2023/04/19 01:07:51;;;;;;;;;;;;;;;15.31;45.26;101518.50;4925161;28;98380;-66
2023/04/19 01:10:17;;;;;;;;;;;;;;;15.29;44.91;101512.50;4939790;28;99872;-65
2023/04/19 01:12:44;;;;;;;;;;;;;;;15.29;45.14;101516.06;4923988;28;98197;-65
2023/04/19 01:15:10;;;;;;;;;;;;;;;15.29;44.79;101517.94;4918727;28;99979;-66
2023/04/19 01:17:37;;;;;;;;;;;;;;;15.27;45.27;101512.78;4924210;28;98315;-65
2023/04/19 01:20:07;;;;;;;;;;;;;;;15.27;44.96;101514.69;4923456;28;98325;-65
2023/04/19 01:22:39;;;;;;;;;;;;;;;15.27;45.07;101520.13;4924786;28;98406;-65
2023/04/19 01:25:06;;;;;;;;;;;;;;;15.26;45.42;101513.88;4936341;28;98277;-66
2023/04/19 01:27:32;;;;;;;;;;;;;;;15.25;45.20;101506.84;4922515;28;98013;-65
2023/04/19 01:29:59;;;;;;;;;;;;;;;15.24;44.93;101516.06;4935499;28;98256;-66
2023/04/19 01:32:26;;;;;;;;;;;;;;;15.23;44.83;101507.09;4923871;28;98385;-65
2023/04/19 01:34:52;;;;;;;;;;;;;;;15.22;45.20;101502.75;4917616;28;99744;-65
2023/04/19 01:37:18;;;;;;;;;;;;;;;15.21;44.93;101509.28;4917665;28;98153;-66
2023/04/19 01:39:44;;;;;;;;;;;;;;;15.20;44.97;101507.63;4902212;28;97918;-66
2023/04/19 01:42:11;;;;;;;;;;;;;;;15.20;45.13;101512.25;4922988;28;97946;-65
2023/04/19 01:44:37;;;;;;;;;;;;;;;15.19;44.97;101506.00;4919918;28;98573;-65
2023/04/19 01:47:04;;;;;;;;;;;;;;;15.18;44.94;101506.28;4922137;28;98370;-65
2023/04/19 01:49:30;;;;;;;;;;;;;;;15.18;45.12;101500.88;4921721;28;98141;-66
2023/04/19 01:51:57;;;;;;;;;;;;;;;15.16;44.95;101503.84;4934592;28;98014;-66
2023/04/19 01:54:23;;;;;;;;;;;;;;;15.16;44.99;101492.16;4931417;28;99057;-66
2023/04/19 01:56:49;;;;;;;;;;;;;;;15.15;44.99;101499.50;4906178;28;99911;-65
2023/04/19 01:59:16;;;;;;;;;;;;;;;15.14;44.97;101494.34;4902369;28;99444;-66
2023/04/19 02:01:42;;;;;;;;;;;;;;;15.13;44.88;101495.41;4908218;28;98265;-65
2023/04/19 02:04:09;;;;;;;;;;;;;;;15.12;44.87;101494.59;4920067;28;98196;-65
2023/04/19 02:06:35;;;;;;;;;;;;;;;15.12;45.07;101504.66;4912902;28;98380;-65
2023/04/19 02:09:02;;;;;;;;;;;;;;;15.12;44.93;101501.94;4920745;28;98165;-65
2023/04/19 02:11:28;;;;;;;;;;;;;;;15.10;45.15;101491.38;4919507;28;98380;-66
2023/04/19 02:13:55;;;;;;;;;;;;;;;15.09;45.16;101492.47;4916726;28;98185;-65
2023/04/19 02:16:21;;;;;;;;;;;;;;;15.08;45.16;101490.81;4903178;28;99792;-66
2023/04/19 02:18:48;;;;;;;;;;;;;;;15.07;45.03;101493.81;4921539;28;98079;-66
2023/04/19 02:21:14;;;;;;;;;;;;;;;15.07;45.23;101489.19;4921948;28;98205;-66
2023/04/19 02:23:41;;;;;;;;;;;;;;;15.05;45.05;101485.94;4922270;28;98188;-65
2023/04/19 02:26:08;;;;;;;;;;;;;;;15.06;45.16;101489.47;4923501;28;97899;-65
2023/04/19 02:28:34;;;;;;;;;;;;;;;15.05;45.17;101494.09;4921876;28;98248;-65
2023/04/19 02:31:04;;;;;;;;;;;;;;;15.04;45.12;101484.28;4923726;28;98106;-66
2023/04/19 02:33:31;;;;;;;;;;;;;;;15.03;45.14;101488.09;4920324;28;99929;-65
2023/04/19 02:35:58;;;;;;;;;;;;;;;15.03;45.08;101481.88;4917732;28;97972;-66
2023/04/19 02:38:24;;;;;;;;;;;;;;;15.02;45.02;101481.06;4932876;28;97945;-65
2023/04/19 02:40:51;;;;;;;;;;;;;;;15.01;44.94;101478.59;4921135;28;98047;-65
2023/04/19 02:43:17;;;;;;;;;;;;;;;14.99;45.06;101470.72;4923318;28;98373;-65
2023/04/19 02:45:44;;;;;;;;;;;;;;;15.00;44.96;101479.69;4934797;28;98223;-66
2023/04/19 02:48:10;;;;;;;;;;;;;;;14.99;44.78;101473.44;4920893;28;99187;-66
2023/04/19 02:50:39;;;;;;;;;;;;;;;14.97;45.16;101468.31;4923013;28;99546;-66
2023/04/19 02:53:05;;;;;;;;;;;;;;;14.95;45.03;101470.47;4921093;28;99520;-65
2023/04/19 02:55:32;;;;;;;;;;;;;;;14.95;45.17;101466.94;4915525;28;99293;-65
2023/04/19 02:57:58;;;;;;;;;;;;;;;14.95;44.97;101467.75;4916950;28;98404;-65
2023/04/19 03:00:24;;;;;;;;;;;;;;;14.93;45.11;101464.50;4922448;28;98028;-65
2023/04/19 03:02:50;;;;;;;;;;;;;;;14.93;45.03;101458.22;4933095;28;99872;-66
2023/04/19 03:05:17;;;;;;;;;;;;;;;14.92;44.87;101456.63;4933346;28;99970;-66
2023/04/19 03:07:44;;;;;;;;;;;;;;;14.91;44.90;101465.84;4927065;28;98417;-66
2023/04/19 03:10:10;;;;;;;;;;;;;;;14.90;45.07;101450.66;4898023;28;98091;-65
2023/04/19 03:12:36;;;;;;;;;;;;;;;14.90;44.91;101454.19;4905122;28;98250;-66
2023/04/19 03:15:03;;;;;;;;;;;;;;;14.88;44.95;101450.91;4930651;28;98882;-67
2023/04/19 03:17:29;;;;;;;;;;;;;;;14.88;45.11;101439.25;4922400;28;98091;-65
2023/04/19 03:19:56;;;;;;;;;;;;;;;14.87;45.25;101446.59;4920668;28;98130;-66
2023/04/19 03:22:22;;;;;;;;;;;;;;;14.86;45.22;101436.00;4922315;28;98100;-66
2023/04/19 03:24:49;;;;;;;;;;;;;;;14.84;45.12;101438.16;4933196;28;98414;-66
2023/04/19 03:27:16;;;;;;;;;;;;;;;14.84;45.20;101440.88;4919700;28;99459;-66
2023/04/19 03:29:42;;;;;;;;;;;;;;;14.83;45.17;101440.06;4901653;28;98265;-66
2023/04/19 03:32:08;;;;;;;;;;;;;;;14.81;45.20;101444.13;4923356;28;97921;-65
2023/04/19 03:34:34;;;;;;;;;;;;;;;14.80;45.19;101443.31;4922681;28;98268;-66
2023/04/19 03:37:01;;;;;;;;;;;;;;;14.79;44.90;101444.41;4925373;28;99183;-65
2023/04/19 03:39:27;;;;;;;;;;;;;;;14.78;45.24;101447.41;4926569;28;98565;-65
2023/04/19 03:41:53;;;;;;;;;;;;;;;14.77;45.06;101443.84;4918265;28;98290;-65
2023/04/19 03:44:20;;;;;;;;;;;;;;;14.76;44.86;101438.72;4932643;28;98856;-65
2023/04/19 03:46:47;;;;;;;;;;;;;;;14.75;44.90;101439.81;4923890;28;98119;-65
2023/04/19 03:49:14;;;;;;;;;;;;;;;14.73;45.12;101442.78;4925817;28;98179;-66
2023/04/19 03:51:40;;;;;;;;;;;;;;;14.72;44.92;101447.38;4924206;28;98361;-66
2023/04/19 03:54:06;;;;;;;;;;;;;;;14.70;44.95;101441.44;4902338;28;98017;-66
2023/04/19 03:56:32;;;;;;;;;;;;;;;14.70;45.12;101449.56;4917329;28;98031;-65
2023/04/19 03:58:59;;;;;;;;;;;;;;;14.69;44.90;101449.81;4908366;28;98165;-65
2023/04/19 04:01:25;;;;;;;;;;;;;;;14.68;44.91;101440.06;4935758;28;98180;-65
2023/04/19 04:03:52;;;;;;;;;;;;;;;14.68;45.27;101448.22;4920923;28;100086;-67
2023/04/19 04:06:18;;;;;;;;;;;;;;;14.67;44.72;101443.88;4900623;28;98197;-65
2023/04/19 04:08:45;;;;;;;;;;;;;;;14.65;45.04;101437.88;4924887;28;99869;-65
2023/04/19 04:11:11;;;;;;;;;;;;;;;14.63;44.97;101442.78;4916768;28;98215;-66
2023/04/19 04:13:37;;;;;;;;;;;;;;;14.60;44.82;101441.41;4922093;28;98001;-64
2023/04/19 04:16:03;;;;;;;;;;;;;;;14.58;44.84;101443.59;4937272;28;97954;-65
2023/04/19 04:18:30;;;;;;;;;;;;;;;14.58;44.77;101442.75;4936240;28;99754;-65
2023/04/19 04:20:56;;;;;;;;;;;;;;;14.58;44.96;101448.19;4920774;28;98165;-65
2023/04/19 04:23:24;;;;;;;;;;;;;;;14.58;44.75;101450.91;4920108;28;98131;-65
2023/04/19 04:25:59;;;;;;;;;;;;;;;14.58;44.84;101461.75;4933759;28;98127;-65
2023/04/19 04:28:27;;;;;;;;;;;;;;;14.58;44.97;101453.63;4920084;28;98293;-65
2023/04/19 04:30:57;;;;;;;;;;;;;;;14.58;44.80;101453.63;4924019;28;98654;-66
2023/04/19 04:33:27;;;;;;;;;;;;;;;14.58;44.56;101459.03;4936710;28;98734;-66
2023/04/19 04:35:57;;;;;;;;;;;;;;;14.57;45.02;101460.94;4923291;28;98025;-66
2023/04/19 04:38:24;;;;;;;;;;;;;;;14.57;44.78;101455.53;4932574;28;98723;-66
2023/04/19 04:40:54;;;;;;;;;;;;;;;14.60;44.60;101459.59;4922500;28;97899;-66
2023/04/19 04:43:21;;;;;;;;;;;;;;;14.61;44.94;101455.78;4897344;28;99498;-65
2023/04/19 04:45:47;;;;;;;;;;;;;;;14.60;44.91;101449.56;4895349;28;98215;-66
2023/04/19 04:48:14;;;;;;;;;;;;;;;14.59;44.69;101457.97;4929993;28;98418;-65
2023/04/19 04:50:41;;;;;;;;;;;;;;;14.61;44.92;101458.50;4929078;28;98022;-66
2023/04/19 04:53:07;;;;;;;;;;;;;;;14.62;44.80;101462.84;4915409;28;98714;-66
2023/04/19 04:55:33;;;;;;;;;;;;;;;14.65;44.72;101454.16;4917769;28;98186;-66
2023/04/19 04:58:00;;;;;;;;;;;;;;;14.66;44.64;101462.06;4935513;28;98551;-66
2023/04/19 05:00:26;;;;;;;;;;;;;;;14.67;44.35;101455.53;4929767;28;99988;-65
2023/04/19 05:02:53;;;;;;;;;;;;;;;14.69;44.48;101449.81;4917183;28;97985;-66
2023/04/19 05:05:19;;;;;;;;;;;;;;;14.71;44.43;101448.47;4930721;28;98677;-65
2023/04/19 05:07:45;;;;;;;;;;;;;;;14.75;44.70;101447.94;4901420;28;99539;-66
2023/04/19 05:10:11;;;;;;;;;;;;;;;14.76;44.34;101447.66;4913142;28;98030;-66
2023/04/19 05:12:38;;;;;;;;;;;;;;;14.79;44.18;101449.03;4899418;28;98330;-66
2023/04/19 05:15:05;;;;;;;;;;;;;;;14.81;44.30;101446.84;4920993;28;98089;-65
2023/04/19 05:17:31;;;;;;;;;;;;;;;14.84;44.32;101441.69;4921166;28;98692;-66
2023/04/19 05:19:57;;;;;;;;;;;;;;;14.87;44.41;101440.34;4919215;28;98141;-66
2023/04/19 05:22:23;;;;;;;;;;;;;;;14.90;44.69;101434.38;4906007;28;98083;-66
2023/04/19 05:24:49;;;;;;;;;;;;;;;14.93;44.30;101442.78;4934097;28;98145;-66
2023/04/19 05:27:15;;;;;;;;;;;;;;;14.95;44.20;101440.59;4920758;28;98268;-66
2023/04/19 05:29:42;;;;;;;;;;;;;;;14.99;44.17;101435.44;4902841;28;99201;-66
2023/04/19 05:32:08;;;;;;;;;;;;;;;15.04;44.12;101437.31;4922114;28;98237;-65
2023/04/19 05:34:35;;;;;;;;;;;;;;;15.09;44.20;101431.88;4919333;28;99899;-65
2023/04/19 05:37:02;;;;;;;;;;;;;;;15.15;44.25;101434.31;4923544;28;98255;-65
2023/04/19 05:39:29;;;;;;;;;;;;;;;15.22;44.22;101425.91;4938246;28;98609;-66
2023/04/19 05:41:55;;;;;;;;;;;;;;;15.27;44.22;101417.72;4933792;28;98403;-66
2023/04/19 05:44:21;;;;;;;;;;;;;;;15.35;44.07;101422.59;4920287;28;98118;-66
2023/04/19 05:46:48;;;;;;;;;;;;;;;15.41;44.15;101420.69;4900637;28;98012;-65
2023/04/19 05:49:14;;;;;;;;;;;;;;;15.50;43.80;101426.38;4922215;28;98063;-65
2023/04/19 05:51:41;;;;;;;;;;;;;;;15.59;43.88;101421.97;4921600;28;98412;-65
2023/04/19 05:54:11;;;;;;;;;;;;;;;15.70;43.82;101421.69;4915196;28;98194;-65
2023/04/19 05:56:37;;;;;;;;;;;;;;;15.83;43.75;101427.59;4923858;28;98350;-66
2023/04/19 05:59:04;;;;;;;;;;;;;;;15.95;43.43;101428.09;4917256;28;98115;-65
2023/04/19 06:01:30;;;;;;;;;;;;;;;16.09;43.54;101422.84;4917039;28;100546;-66
2023/04/19 06:03:56;;;;;;;;;;;;;;;16.22;43.38;101419.50;4939164;28;100174;-65
2023/04/19 06:06:23;;;;;;;;;;;;;;;16.35;43.61;101418.06;4900116;28;98045;-65
2023/04/19 06:08:49;;;;;;;;;;;;;;;16.51;43.27;101416.06;4919064;28;100038;-65
2023/04/19 06:11:16;;;;;;;;;;;;;;;16.65;43.09;101415.09;4919889;28;98416;-65
2023/04/19 06:13:43;;;;;;;;;;;;;;;16.82;43.09;101413.91;4918055;28;97998;-66
2023/04/19 06:16:09;;;;;;;;;;;;;;;16.99;42.88;101413.47;4900672;28;98388;-65
2023/04/19 06:18:36;;;;;;;;;;;;;;;17.14;42.89;101410.59;4917028;28;98382;-66
2023/04/19 06:21:02;;;;;;;;;;;;;;;17.30;42.56;101406.63;4916101;28;98104;-66
2023/04/19 06:23:28;;;;;;;;;;;;;;;17.48;42.75;101413.19;4935718;28;98325;-66
2023/04/19 06:25:54;;;;;;;;;;;;;;;17.64;42.71;101406.50;4915479;28;98341;-65
2023/04/19 06:28:20;;;;;;;;;;;;;;;17.82;42.68;101401.38;4920628;28;98365;-65
2023/04/19 06:30:47;;;;;;;;;;;;;;;18.00;42.22;101411.50;4920208;28;98264;-65
2023/04/19 06:33:13;;;;;;;;;;;;;;;18.19;42.48;101399.75;4917609;28;99796;-65
2023/04/19 06:35:40;;;;;;;;;;;;;;;18.39;42.44;101402.16;4918522;28;98273;-66
2023/04/19 06:38:06;;;;;;;;;;;;;;;18.60;42.30;101399.94;4919491;28;98343;-65
2023/04/19 06:40:33;;;;;;;;;;;;;;;18.80;42.05;101399.59;4918639;28;98156;-66
2023/04/19 06:42:59;;;;;;;;;;;;;;;19.07;42.03;101404.31;4922537;28;98175;-66
2023/04/19 06:45:27;;;;;;;;;;;;;;;19.40;41.83;101395.19;4922789;28;99359;-65
2023/04/19 06:47:55;;;;;;;;;;;;;;;19.73;41.78;101396.72;4920458;28;99344;-66
2023/04/19 06:50:22;;;;;;;;;;;;;;;20.07;41.55;101401.69;4916986;28;98600;-66
2023/04/19 06:52:48;;;;;;;;;;;;;;;20.42;41.51;101392.97;4903114;28;98337;-66
2023/04/19 06:55:15;;;;;;;;;;;;;;;20.75;41.41;101396.25;4918575;28;98344;-66
2023/04/19 06:57:42;;;;;;;;;;;;;;;21.03;41.39;101397.72;4899101;28;97962;-67
2023/04/19 07:00:10;;;;;;;;;;;;;;;21.32;41.24;101396.38;4931112;28;98182;-66
2023/04/19 07:02:36;;;;;;;;;;;;;;;21.55;41.12;101386.94;4913056;28;99429;-66
2023/04/19 07:05:03;;;;;;;;;;;;;;;21.79;41.15;101392.00;4919170;28;99744;-67
2023/04/19 07:07:29;;;;;;;;;;;;;;;21.99;41.22;101393.31;4919861;28;98242;-66
2023/04/19 07:09:56;;;;;;;;;;;;;;;22.17;40.99;101387.88;4928596;28;98784;-67
2023/04/19 07:12:22;;;;;;;;;;;;;;;22.36;40.95;101380.09;4916615;28;98307;-67
2023/04/19 07:14:48;;;;;;;;;;;;;;;22.58;41.03;101372.78;4900579;28;98141;-67
2023/04/19 07:17:17;;;;;;;;;;;;;;;22.78;41.11;101372.06;4921158;28;98146;-67
2023/04/19 07:19:47;;;;;;;;;;;;;;;23.00;40.73;101365.56;4906885;28;99062;-67
2023/04/19 07:22:14;;;;;;;;;;;;;;;23.20;41.00;101361.28;4904682;28;98013;-67
2023/04/19 07:24:40;;;;;;;;;;;;;;;23.37;40.58;101358.41;4923726;28;97974;-67
2023/04/19 07:27:07;;;;;;;;;;;;;;;23.50;40.77;101353.78;4929074;28;99028;-67
2023/04/19 07:29:36;;;;;;;;;;;;;;;23.62;40.78;101355.81;4918626;28;98098;-67
2023/04/19 07:32:03;;;;;;;;;;;;;;;23.76;40.94;101350.91;4905349;28;98029;-67
2023/04/19 07:34:29;;;;;;;;;;;;;;;23.93;40.48;101347.19;4931514;28;97935;-67
2023/04/19 07:36:55;;;;;;;;;;;;;;;24.14;40.63;101344.44;4922214;28;98114;-68
2023/04/19 07:39:23;;;;;;;;;;;;;;;24.41;40.54;101349.41;4932622;28;98444;-68
2023/04/19 07:41:49;;;;;;;;;;;;;;;24.67;40.11;101349.09;4918823;28;98093;-67
2023/04/19 07:44:15;;;;;;;;;;;;;;;24.96;40.21;101345.34;4916813;28;98253;-68
2023/04/19 07:46:44;;;;;;;;;;;;;;;25.23;40.06;101351.38;4918240;28;98316;-67
2023/04/19 07:49:10;;;;;;;;;;;;;;;25.41;40.18;101344.44;4930007;28;98683;-68
2023/04/19 07:51:37;;;;;;;;;;;;;;;25.62;39.86;101343.47;4917726;28;98095;-67
2023/04/19 07:54:03;;;;;;;;;;;;;;;25.84;39.93;101342.19;4922374;28;98141;-68
2023/04/19 07:56:32;;;;;;;;;;;;;;;26.05;39.50;101339.25;4905731;28;98165;-68
2023/04/19 07:58:59;;;;;;;;;;;;;;;26.36;39.45;101344.03;4916572;28;100349;-68
2023/04/19 08:01:25;;;;;;;;;;;;;;;26.76;39.45;101335.63;4921164;28;98083;-72
2023/04/19 08:03:52;;;;;;;;;;;;;;;27.24;39.08;101335.66;4922829;28;98187;-67
2023/04/19 08:06:20;;;;;;;;;;;;;;;27.79;38.87;101330.97;4922399;28;99858;-68
2023/04/19 08:08:46;;;;;;;;;;;;;;;28.33;38.81;101335.56;4914068;28;99514;-68
2023/04/19 08:11:13;;;;;;;;;;;;;;;28.85;38.31;101325.84;4916030;28;98321;-69
2023/04/19 08:13:39;;;;;;;;;;;;;;;29.51;38.22;101323.66;4905956;28;98192;-69
2023/04/19 08:16:06;;;;;;;;;;;;;;;30.20;37.80;101331.69;4921462;28;99837;-70
2023/04/19 08:18:34;;;;;;;;;;;;;;;30.92;37.59;101328.41;4918310;28;98116;-70
2023/04/19 08:21:03;;;;;;;;;;;;;;;31.70;37.15;101316.97;4920185;28;98384;-70
2023/04/19 08:23:30;;;;;;;;;;;;;;;32.48;36.79;101319.22;4923445;28;98270;-70
2023/04/19 08:25:56;;;;;;;;;;;;;;;33.27;36.41;101310.78;4921478;28;98166;-69
2023/04/19 08:28:22;;;;;;;;;;;;;;;34.09;36.46;101318.09;4905660;28;97965;-70
2023/04/19 08:30:49;;;;;;;;;;;;;;;35.12;35.66;101316.50;4923773;28;98048;-69
2023/04/19 08:33:16;;;;;;;;;;;;;;;35.69;35.71;101310.25;4915987;28;99672;-70
2023/04/19 08:35:44;;;;;;;;;;;;;;;36.61;35.14;101313.75;4919281;28;98310;-70
2023/04/19 08:38:12;;;;;;;;;;;;;;;37.68;34.93;101304.53;4920505;28;98211;-70
2023/04/19 08:41:01;;;;;;;;;;;;;;;36.11;36.76;101303.28;4920443;28;98006;-70
2023/04/19 08:43:32;;;;;;;;;;;;;;;36.84;35.90;101296.09;4929404;28;97935;-69
2023/04/19 08:45:58;;;;;;;;;;;;;;;36.59;36.87;101296.53;4922391;28;98652;-70
2023/04/19 08:48:24;;;;;;;;;;;;;;;36.61;36.88;101296.91;4921759;28;97934;-70
2023/04/19 08:50:51;;;;;;;;;;;;;;;37.41;36.15;101296.25;4905347;28;98581;-69
2023/04/19 08:53:18;;;;;;;;;;;;;;;38.73;34.88;101296.84;4920311;28;98104;-71
2023/04/19 08:55:44;;;;;;;;;;;;;;;39.69;34.67;101295.44;4919251;28;98098;-69
2023/04/19 08:58:11;;;;;;;;;;;;;;;38.14;36.50;101283.03;4921376;28;98559;-70
2023/04/19 09:00:39;;;;;;;;;;;;;;;39.92;34.99;101277.38;4936726;28;98269;-70
2023/04/19 09:03:06;;;;;;;;;;;;;;;41.27;33.95;101268.34;4900457;28;98219;-70
2023/04/19 09:05:33;;;;;;;;;;;;;;;41.86;33.86;101278.66;4917721;28;99590;-71
2023/04/19 09:08:26;;;;;;;;;;;;;;;41.65;35.03;101265.31;4921765;28;98230;-69
2023/04/19 09:10:55;;;;;;;;;;;;;;;39.94;36.40;101261.59;4935613;28;98400;-69
2023/04/19 09:13:22;;;;;;;;;;;;;;;38.98;37.39;101267.22;4937999;28;99475;-71
2023/04/19 09:15:50;;;;;;;;;;;;;;;37.35;38.77;101253.81;4936196;28;99977;-70
2023/04/19 09:18:18;;;;;;;;;;;;;;;39.19;36.10;101257.41;4923414;28;98003;-70
2023/04/19 09:20:45;;;;;;;;;;;;;;;40.35;35.14;101256.25;4933877;28;98112;-69
2023/04/19 09:23:16;;;;;;;;;;;;;;;40.66;35.47;101247.97;4919893;28;98240;-69
2023/04/19 09:26:03;;;;;;;;;;;;;;;40.84;35.71;101250.16;4923297;28;98308;-71
2023/04/19 09:28:29;;;;;;;;;;;;;;;41.54;35.23;101253.63;4918391;28;98240;-69
2023/04/19 09:30:56;;;;;;;;;;;;;;;42.66;34.71;101242.97;4925428;28;98092;-66
2023/04/19 09:33:34;;;;;;;;;;;;;;;43.83;33.85;101250.94;4900465;28;97979;-66
2023/04/19 09:36:01;;;;;;;;;;;;;;;45.21;33.02;101238.56;4933683;28;98321;-70
2023/04/19 09:38:28;;;;;;;;;;;;;;;45.16;33.57;101229.94;4918630;28;98292;-67
2023/04/19 09:41:10;;;;;;;;;;;;;;;44.85;34.00;101224.72;4917191;28;99583;-67
2023/04/19 09:43:37;;;;;;;;;;;;;;;44.00;34.69;101219.34;4920921;28;99593;-67
2023/04/19 09:46:04;;;;;;;;;;;;;;;45.22;33.57;101225.91;4921276;28;98068;-67
2023/04/19 09:48:31;;;;;;;;;;;;;;;47.09;32.33;101212.91;4923530;28;98228;-67
2023/04/19 09:50:59;;;;;;;;;;;;;;;45.89;33.86;101205.50;4917409;28;97979;-69
2023/04/19 09:53:29;;;;;;;;;;;;;;;43.67;35.87;101202.31;4922284;28;98115;-68
2023/04/19 09:55:55;;;;;;;;;;;;;;;46.04;33.26;101194.84;4917724;28;98264;-68
2023/04/19 09:58:21;;;;;;;;;;;;;;;45.22;34.58;101188.94;4921339;28;97893;-68
2023/04/19 10:00:51;;;;;;;;;;;;;;;47.13;32.63;101190.63;4923048;28;98262;-68
2023/04/19 10:03:17;;;;;;;;;;;;;;;45.35;34.87;101182.94;4923678;28;98065;-71
2023/04/19 10:05:45;;;;;;;;;;;;;;;46.83;33.42;101190.84;4922171;28;98144;-68
2023/04/19 10:08:13;;;;;;;;;;;;;;;46.01;34.41;101179.53;4919624;28;100389;-68
2023/04/19 10:10:40;;;;;;;;;;;;;;;47.56;33.21;101180.06;4921387;28;98085;-70
2023/04/19 10:13:09;;;;;;;;;;;;;;;47.66;32.94;101178.56;4922542;28;98357;-71
2023/04/19 10:15:36;;;;;;;;;;;;;;;49.01;32.26;101172.53;4902238;28;98266;-71
2023/04/19 10:18:04;;;;;;;;;;;;;;;49.92;31.66;101177.63;4898569;28;98201;-70
2023/04/19 10:20:48;;;;;;;;;;;;;;;49.76;32.06;101159.16;4921831;28;98260;-68
2023/04/19 10:23:15;;;;;;;;;;;;;;;50.91;31.08;101164.53;4921335;28;98095;-68
2023/04/19 10:25:46;;;;;;;;;;;;;;;49.78;32.66;101159.41;4915146;28;98126;-68
2023/04/19 10:28:16;;;;;;;;;;;;;;;47.18;35.09;101141.41;4915788;28;98361;-68
2023/04/19 10:31:01;;;;;;;;;;;;;;;44.99;36.87;101145.13;4927265;28;98011;-68
2023/04/19 10:33:30;;;;;;;;;;;;;;;43.07;38.14;101150.84;4923604;28;98022;-70
2023/04/19 10:35:57;;;;;;;;;;;;;;;41.73;38.84;101138.53;4921110;28;98337;-69
2023/04/19 10:38:50;;;;;;;;;;;;;;;40.61;39.48;101136.38;4932993;28;97864;-69
2023/04/19 10:41:17;;;;;;;;;;;;;;;39.42;40.04;101127.47;4918203;28;98287;-69
2023/04/19 10:43:56;;;;;;;;;;;;;;;38.26;40.65;101133.19;4935336;28;98267;-67
2023/04/19 10:46:27;;;;;;;;;;;;;;;37.05;41.53;101123.59;4936297;28;98193;-67
2023/04/19 10:48:57;;;;;;;;;;;;;;;36.08;41.67;101133.06;4932607;28;99468;-67
2023/04/19 10:51:31;;;;;;;;;;;;;;;35.23;42.14;101123.91;4918775;28;98063;-69
2023/04/19 10:54:01;;;;;;;;;;;;;;;34.51;42.12;101120.38;4931623;28;98051;-66
2023/04/19 10:56:33;;;;;;;;;;;;;;;33.99;42.22;101131.63;4936915;28;99544;-67
2023/04/19 11:01:44;;;;;;;;;;;;;;;33.23;42.15;101125.69;4928041;28;98100;-66
2023/04/19 11:04:25;;;;;;;;;;;;;;;32.47;43.15;101132.75;4938388;28;98235;-66
2023/04/19 11:06:51;;;;;;;;;;;;;;;31.94;43.09;101134.31;4922852;28;98168;-67
2023/04/19 11:09:38;;;;;;;;;;;;;;;31.41;43.21;101131.47;4930672;28;98589;-68
2023/04/19 11:12:08;;;;;;;;;;;;;;;30.81;43.37;101135.56;4918304;28;98231;-67
2023/04/19 11:14:45;;;;;;;;;;;;;;;30.39;43.46;101124.97;4908604;28;98086;-68
2023/04/19 11:17:26;;;;;;;;;;;;;;;30.12;43.40;101127.13;4904920;28;98198;-66
2023/04/19 11:19:54;;;;;;;;;;;;;;;29.83;43.32;101126.88;4914040;28;98249;-66
2023/04/19 11:22:36;;;;;;;;;;;;;;;29.62;43.29;101130.22;4918551;28;102577;-68
2023/04/19 11:25:09;;;;;;;;;;;;;;;29.35;43.34;101124.75;4931424;28;98227;-68
2023/04/19 11:27:35;;;;;;;;;;;;;;;29.62;42.39;101127.44;4936858;28;98144;-67
2023/04/19 11:30:06;;;;;;;;;;;;;;;29.98;41.97;101114.69;4906181;28;98036;-67
2023/04/19 11:32:34;;;;;;;;;;;;;;;29.97;41.54;101113.09;4922148;28;98066;-68
2023/04/19 11:35:09;;;;;;;;;;;;;;;29.81;42.00;101113.34;4921878;28;99505;-68
2023/04/19 11:37:37;;;;;;;;;;;;;;;29.55;41.86;101103.19;4923425;28;98307;-68
2023/04/19 11:40:05;;;;;;;;;;;;;;;29.63;41.64;101097.69;4914204;28;98533;-67
2023/04/19 11:42:33;;;;;;;;;;;;;;;29.31;41.82;101104.50;4935079;28;98280;-68
2023/04/19 11:45:00;;;;;;;;;;;;;;;28.89;42.65;101104.78;4921036;28;98310;-68
2023/04/19 11:47:28;;;;;;;;;;;;;;;28.52;42.71;101105.44;4923435;28;98364;-68
2023/04/19 11:49:56;;;;;;;;;;;;;;;28.31;42.31;101100.38;4903226;28;97875;-67
2023/04/19 11:52:27;;;;;;;;;;;;;;;28.14;42.58;101093.41;4921127;28;98446;-68
2023/04/19 11:54:55;;;;;;;;;;;;;;;27.98;42.60;101089.97;4908724;28;98353;-69
2023/04/19 11:57:30;;;;;;;;;;;;;;;27.68;42.46;101091.78;4921585;28;98121;-68
2023/04/19 12:00:28;;;;;;;;;;;;;;;27.36;42.72;101089.25;4921648;28;99429;-68
2023/04/19 12:02:57;;;;;;;;;;;;;;;26.84;43.01;101098.81;4922002;28;98732;-68
2023/04/19 12:05:25;;;;;;;;;;;;;;;26.40;43.25;101094.28;4925459;28;98108;-67
2023/04/19 12:08:08;;;;;;;;;;;;;;;26.09;43.32;101095.13;4923281;28;98068;-68
2023/04/19 12:10:37;;;;;;;;;;;;;;;25.96;43.10;101090.88;4922316;28;98123;-68
2023/04/19 12:13:19;;;;;;;;;;;;;;;26.28;42.58;101088.88;4923156;28;97939;-68
2023/04/19 12:15:48;;;;;;;;;;;;;;;25.95;42.91;101092.03;4933560;28;98252;-67
2023/04/19 12:18:14;;;;;;;;;;;;;;;25.68;42.95;101086.19;4919014;28;98120;-68
2023/04/19 12:20:46;;;;;;;;;;;;;;;25.63;42.92;101083.72;4920816;28;98175;-68
2023/04/19 12:23:15;;;;;;;;;;;;;;;27.54;40.16;101073.75;4940312;28;97985;-68
2023/04/19 12:25:43;;;;;;;;;;;;;;;28.19;39.92;101077.63;4910782;28;98495;-67
2023/04/19 12:28:11;;;;;;;;;;;;;;;29.08;39.08;101074.13;4926202;28;98061;-67
2023/04/19 12:30:39;;;;;;;;;;;;;;;29.01;39.40;101071.28;4924198;28;98041;-68
2023/04/19 12:33:08;;;;;;;;;;;;;;;28.51;40.15;101067.81;4904237;28;98247;-67
2023/04/19 12:35:37;;;;;;;;;;;;;;;28.78;40.06;101071.34;4920995;28;98010;-68
2023/04/19 12:38:05;;;;;;;;;;;;;;;28.44;40.88;101066.94;4937700;28;98032;-67
2023/04/19 12:40:32;;;;;;;;;;;;;;;27.83;41.56;101066.78;4919793;28;99435;-67
2023/04/19 12:42:59;;;;;;;;;;;;;;;27.40;41.53;101068.78;4922477;28;97944;-67